createdAt,value
2018-10-02T00:02:03.403Z,2.10
2018-10-02T00:05:07.828Z,1.87
2018-10-02T00:08:12.129Z,1.60
2018-10-02T00:12:23.723Z,1.57
2018-10-02T00:15:28.011Z,1.57
2018-10-02T00:18:32.491Z,1.80
2018-10-02T00:21:36.775Z,1.67
2018-10-02T00:24:41.096Z,1.53
2018-10-02T00:27:45.392Z,1.77
2018-10-02T00:30:49.622Z,1.37
2018-10-02T00:33:53.897Z,1.30
2018-10-02T00:36:58.180Z,1.70
2018-10-02T00:40:02.537Z,1.80
2018-10-02T00:43:06.945Z,1.30
2018-10-02T00:46:11.231Z,1.53
2018-10-02T00:49:15.548Z,1.60
2018-10-02T00:52:19.824Z,1.43
2018-10-02T00:55:25.017Z,1.73
2018-10-02T00:58:29.329Z,1.97
2018-10-02T01:01:33.650Z,1.70
2018-10-02T01:04:37.972Z,1.60
2018-10-02T01:07:42.323Z,1.60
2018-10-02T01:10:46.571Z,1.63
2018-10-02T01:13:50.839Z,1.50
2018-10-02T01:16:55.185Z,1.60
2018-10-02T01:19:59.457Z,1.30
2018-10-02T01:23:03.861Z,1.83
2018-10-02T01:26:08.148Z,1.70
2018-10-02T01:29:12.446Z,1.77
2018-10-02T01:32:16.714Z,1.40
2018-10-02T01:35:20.968Z,1.77
2018-10-02T01:38:25.312Z,1.80
2018-10-02T01:41:29.652Z,1.50
2018-10-02T01:44:33.914Z,2.37
2018-10-02T01:47:38.171Z,1.50
2018-10-02T01:50:42.461Z,1.40
2018-10-02T01:53:46.849Z,1.93
2018-10-02T01:56:51.291Z,1.20
2018-10-02T01:59:55.583Z,1.90
2018-10-02T02:02:59.851Z,1.30
2018-10-02T02:06:04.231Z,1.60
2018-10-02T02:09:08.807Z,1.73
2018-10-02T02:12:13.137Z,1.53
2018-10-02T02:15:17.474Z,1.90
2018-10-02T02:18:21.799Z,1.60
2018-10-02T02:21:26.161Z,1.87
2018-10-02T02:24:30.444Z,2.63
2018-10-02T02:27:34.806Z,1.70
2018-10-02T02:30:39.109Z,1.47
2018-10-02T02:33:43.415Z,2.10
2018-10-02T02:36:47.733Z,1.57
2018-10-02T02:39:52.064Z,1.40
2018-10-02T02:42:56.399Z,2.10
2018-10-02T02:46:00.693Z,1.63
2018-10-02T02:49:10.277Z,1.80
2018-10-02T02:52:15.546Z,1.93
2018-10-02T02:55:19.923Z,2.20
2018-10-02T02:58:24.197Z,1.50
2018-10-02T03:01:29.234Z,1.87
2018-10-02T03:04:33.588Z,1.80
2018-10-02T03:07:37.898Z,1.47
2018-10-02T03:10:42.229Z,1.80
2018-10-02T03:13:46.551Z,1.53
2018-10-02T03:16:50.868Z,1.73
2018-10-02T03:19:55.232Z,1.87
2018-10-02T03:22:59.521Z,2.97
2018-10-02T03:26:03.843Z,1.77
2018-10-02T03:29:08.469Z,1.67
2018-10-02T03:32:12.798Z,1.60
2018-10-02T03:35:17.121Z,1.70
2018-10-02T03:38:21.418Z,1.57
2018-10-02T03:41:25.754Z,2.40
2018-10-02T03:44:30.036Z,1.67
2018-10-02T03:47:34.405Z,1.70
2018-10-02T03:50:38.706Z,1.90
2018-10-02T03:53:44.065Z,1.50
2018-10-02T03:56:48.491Z,1.73
2018-10-02T03:59:52.821Z,2.40
2018-10-02T04:02:57.088Z,2.03
2018-10-02T04:06:01.458Z,1.47
2018-10-02T04:09:09.165Z,2.17
2018-10-02T04:12:13.416Z,1.60
2018-10-02T04:15:17.665Z,1.80
2018-10-02T04:18:22.124Z,2.47
2018-10-02T04:21:31.571Z,1.60
2018-10-02T04:24:35.846Z,1.70
2018-10-02T04:27:40.336Z,1.70
2018-10-02T04:30:44.628Z,1.57
2018-10-02T04:33:49.227Z,1.77
2018-10-02T04:36:53.484Z,1.97
2018-10-02T04:39:57.715Z,1.60
2018-10-02T04:43:02.127Z,1.43
2018-10-02T04:46:06.473Z,1.60
2018-10-02T04:49:10.778Z,1.70
2018-10-02T04:52:15.088Z,1.43
2018-10-02T04:55:19.412Z,1.60
2018-10-02T04:58:23.741Z,1.40
2018-10-02T05:01:28.056Z,1.30
2018-10-02T05:04:32.388Z,1.67
2018-10-02T05:07:36.695Z,1.80
2018-10-02T05:10:40.964Z,1.60
2018-10-02T05:13:45.243Z,1.30
2018-10-02T05:16:49.565Z,1.43
2018-10-02T05:19:53.899Z,2.87
2018-10-02T05:22:58.174Z,1.30
2018-10-02T05:26:02.518Z,1.17
2018-10-02T05:29:06.970Z,1.33
2018-10-02T05:32:11.264Z,1.67
2018-10-02T05:35:15.737Z,1.83
2018-10-02T05:38:19.904Z,1.70
2018-10-02T05:41:24.180Z,1.33
2018-10-02T05:44:28.428Z,1.30
2018-10-02T05:47:32.797Z,1.50
2018-10-02T05:50:37.136Z,1.60
2018-10-02T05:53:41.445Z,1.40
2018-10-02T05:56:45.768Z,1.50
2018-10-02T05:59:50.039Z,3.07
2018-10-02T06:02:54.409Z,2.47
2018-10-02T06:05:58.747Z,2.00
2018-10-02T06:09:03.080Z,2.17
2018-10-02T06:12:07.500Z,2.27
2018-10-02T06:15:11.760Z,2.10
2018-10-02T06:18:16.101Z,1.70
2018-10-02T06:21:20.425Z,1.87
2018-10-02T06:24:24.732Z,1.47
2018-10-02T06:27:29.065Z,1.90
2018-10-02T06:30:33.444Z,1.90
2018-10-02T06:33:37.916Z,1.37
2018-10-02T06:36:42.464Z,1.70
2018-10-02T06:39:46.774Z,1.60
2018-10-02T06:42:51.055Z,1.57
2018-10-02T06:45:55.401Z,1.87
2018-10-02T06:48:59.723Z,1.70
2018-10-02T06:52:04.276Z,1.83
2018-10-02T06:55:09.260Z,1.90
2018-10-02T06:58:13.632Z,1.70
2018-10-02T07:01:17.906Z,1.87
2018-10-02T07:04:22.250Z,1.70
2018-10-02T07:07:26.513Z,1.57
2018-10-02T07:10:30.792Z,1.47
2018-10-02T07:13:35.130Z,2.13
2018-10-02T07:16:40.324Z,1.90
2018-10-02T07:19:44.635Z,1.77
2018-10-02T07:22:48.997Z,1.20
2018-10-02T07:25:53.306Z,1.53
2018-10-02T07:28:57.652Z,2.00
2018-10-02T07:32:01.949Z,1.63
2018-10-02T07:35:06.857Z,1.73
2018-10-02T07:38:11.218Z,2.30
2018-10-02T07:41:15.540Z,2.67
2018-10-02T07:44:19.899Z,2.33
2018-10-02T07:47:24.205Z,3.10
2018-10-02T07:50:28.469Z,2.60
2018-10-02T07:53:32.875Z,2.40
2018-10-02T07:56:37.209Z,2.73
2018-10-02T07:59:41.642Z,2.53
2018-10-02T08:02:45.941Z,2.40
2018-10-02T08:05:50.405Z,2.60
2018-10-02T08:08:54.780Z,3.00
2018-10-02T08:11:59.127Z,2.80
2018-10-02T08:15:03.516Z,2.93
2018-10-02T08:18:08.155Z,2.77
2018-10-02T08:21:12.455Z,2.63
2018-10-02T08:24:16.765Z,2.70
2018-10-02T08:27:21.161Z,2.77
2018-10-02T08:30:25.566Z,2.40
2018-10-02T08:33:29.874Z,2.80
2018-10-02T08:36:34.214Z,3.70
2018-10-02T08:39:38.574Z,3.43
2018-10-02T08:42:42.847Z,3.20
2018-10-02T08:45:47.162Z,3.40
2018-10-02T08:48:51.474Z,3.40
2018-10-02T08:51:55.830Z,4.53
2018-10-02T08:55:02.272Z,3.10
2018-10-02T08:58:06.601Z,3.87
2018-10-02T09:01:10.934Z,3.60
2018-10-02T09:04:15.227Z,4.07
2018-10-02T09:07:19.533Z,4.93
2018-10-02T09:10:23.869Z,4.47
2018-10-02T09:13:28.890Z,3.50
2018-10-02T09:16:33.293Z,3.90
2018-10-02T09:19:37.592Z,3.47
2018-10-02T09:22:41.946Z,2.60
2018-10-02T09:25:46.275Z,3.20
2018-10-02T09:28:50.629Z,3.30
2018-10-02T09:32:00.249Z,3.17
2018-10-02T09:35:09.817Z,2.80
2018-10-02T09:38:19.473Z,2.90
2018-10-02T09:41:29.232Z,2.90
2018-10-02T09:44:33.594Z,2.60
2018-10-02T09:47:37.918Z,2.27
2018-10-02T09:50:42.204Z,3.17
2018-10-02T09:53:46.601Z,3.00
2018-10-02T09:56:50.878Z,2.63
2018-10-02T09:59:55.180Z,2.90
2018-10-02T10:02:59.580Z,2.30
2018-10-02T10:06:03.879Z,3.20
2018-10-02T10:09:09.250Z,3.30
2018-10-02T10:12:13.543Z,2.90
2018-10-02T10:15:17.802Z,2.93
2018-10-02T10:18:22.192Z,3.47
2018-10-02T10:21:27.144Z,2.93
2018-10-02T10:24:31.434Z,2.93
2018-10-02T10:27:35.914Z,2.60
2018-10-02T10:30:41.151Z,3.03
2018-10-02T10:33:45.422Z,2.77
2018-10-02T10:36:49.790Z,2.97
2018-10-02T10:39:54.221Z,2.83
2018-10-02T10:42:58.578Z,2.70
2018-10-02T10:46:02.869Z,2.50
2018-10-02T10:49:07.213Z,2.57
2018-10-02T10:52:11.504Z,2.30
2018-10-02T10:55:27.810Z,2.23
2018-10-02T10:58:32.212Z,1.80
2018-10-02T11:01:36.481Z,1.60
2018-10-02T11:04:40.863Z,1.50
2018-10-02T11:07:45.272Z,1.90
2018-10-02T11:10:49.734Z,2.67
2018-10-02T11:13:54.147Z,2.00
2018-10-02T11:16:58.423Z,2.70
2018-10-02T11:20:03.510Z,2.57
2018-10-02T11:23:07.798Z,2.80
2018-10-02T11:26:12.661Z,2.90
2018-10-02T11:29:17.034Z,3.03
2018-10-02T11:32:21.473Z,3.37
2018-10-02T11:35:26.163Z,4.13
2018-10-02T11:38:30.535Z,3.13
2018-10-02T11:41:34.829Z,4.37
2018-10-02T11:44:39.225Z,3.60
2018-10-02T11:47:43.506Z,3.47
2018-10-02T11:50:47.936Z,4.07
2018-10-02T11:53:52.212Z,3.47
2018-10-02T11:56:56.529Z,3.27
2018-10-02T12:00:00.862Z,4.17
2018-10-02T12:03:05.200Z,4.30
2018-10-02T12:06:10.261Z,3.50
2018-10-02T12:09:14.646Z,3.93
2018-10-02T12:12:18.978Z,3.73
2018-10-02T12:15:23.416Z,3.40
2018-10-02T12:18:27.706Z,4.07
2018-10-02T12:21:32.003Z,3.50
2018-10-02T12:24:36.354Z,3.90
2018-10-02T12:27:40.703Z,3.77
2018-10-02T12:30:45.037Z,3.33
2018-10-02T12:33:49.352Z,3.33
2018-10-02T12:36:53.633Z,4.07
2018-10-02T12:39:57.956Z,3.57
2018-10-02T12:43:02.289Z,3.27
2018-10-02T12:46:07.318Z,4.23
2018-10-02T12:49:11.647Z,3.50
2018-10-02T12:52:16.373Z,3.30
2018-10-02T12:55:20.711Z,3.00
2018-10-02T12:58:24.976Z,2.83
2018-10-02T13:01:29.347Z,3.50
2018-10-02T13:04:33.699Z,2.90
2018-10-02T13:07:38.007Z,2.00
2018-10-02T13:10:42.290Z,2.63
2018-10-02T13:13:46.633Z,3.13
2018-10-02T13:16:50.970Z,2.63
2018-10-02T13:19:55.950Z,2.67
2018-10-02T13:23:00.302Z,2.97
2018-10-02T13:26:05.393Z,2.77
2018-10-02T13:29:09.802Z,2.00
2018-10-02T13:32:14.181Z,2.73
2018-10-02T13:35:18.394Z,3.10
2018-10-02T13:38:22.693Z,2.83
2018-10-02T13:41:26.995Z,3.47
2018-10-02T13:44:31.332Z,3.87
2018-10-02T13:47:35.701Z,3.70
2018-10-02T13:50:40.118Z,3.77
2018-10-02T13:53:44.689Z,3.27
2018-10-02T13:56:49.060Z,2.80
2018-10-02T13:59:53.391Z,2.87
2018-10-02T14:02:57.740Z,3.20
2018-10-02T14:06:02.067Z,3.80
2018-10-02T14:09:08.020Z,2.63
2018-10-02T14:12:12.318Z,2.50
2018-10-02T14:15:16.659Z,2.50
2018-10-02T14:18:20.948Z,3.30
2018-10-02T14:21:25.306Z,3.17
2018-10-02T14:24:29.578Z,2.30
2018-10-02T14:27:33.944Z,1.63
2018-10-02T14:30:38.302Z,2.87
2018-10-02T14:33:42.694Z,2.83
2018-10-02T14:36:47.015Z,3.50
2018-10-02T14:39:51.313Z,3.13
2018-10-02T14:42:55.685Z,3.07
2018-10-02T14:46:00.068Z,3.60
2018-10-02T14:49:04.369Z,2.70
2018-10-02T14:52:08.700Z,3.43
2018-10-02T14:55:12.987Z,3.57
2018-10-02T14:58:17.415Z,3.40
2018-10-02T15:01:21.794Z,3.27
2018-10-02T15:04:26.082Z,2.10
2018-10-02T15:07:30.677Z,2.97
2018-10-02T15:10:35.311Z,2.50
2018-10-02T15:13:39.664Z,2.73
2018-10-02T15:16:44.035Z,2.80
2018-10-02T15:19:48.383Z,2.63
2018-10-02T15:22:52.766Z,2.93
2018-10-02T15:25:57.217Z,2.50
2018-10-02T15:29:01.637Z,2.27
2018-10-02T15:32:06.033Z,2.13
2018-10-02T15:35:10.968Z,2.60
2018-10-02T15:38:15.286Z,2.27
2018-10-02T15:41:19.708Z,3.03
2018-10-02T15:44:24.070Z,2.50
2018-10-02T15:47:30.454Z,1.90
2018-10-02T15:50:34.743Z,2.90
2018-10-02T15:53:39.128Z,3.17
2018-10-02T15:56:43.461Z,2.37
2018-10-02T15:59:48.538Z,2.43
2018-10-02T16:02:52.836Z,1.80
2018-10-02T16:05:57.124Z,2.97
2018-10-02T16:09:01.457Z,3.70
2018-10-02T16:12:06.733Z,2.80
2018-10-02T16:15:11.121Z,2.87
2018-10-02T16:18:15.472Z,3.13
2018-10-02T16:21:19.789Z,2.40
2018-10-02T16:24:24.102Z,2.80
2018-10-02T16:27:28.530Z,2.87
2018-10-02T16:30:32.921Z,2.47
2018-10-02T16:33:37.260Z,3.43
2018-10-02T16:36:41.609Z,2.97
2018-10-02T16:39:46.672Z,3.07
2018-10-02T16:42:51.032Z,2.77
2018-10-02T16:45:55.354Z,3.70
2018-10-02T16:48:59.690Z,3.70
2018-10-02T16:52:04.268Z,2.73
2018-10-02T16:55:08.663Z,3.67
2018-10-02T16:58:13.067Z,3.13
2018-10-02T17:01:17.495Z,2.93
2018-10-02T17:04:21.926Z,2.77
2018-10-02T17:07:26.350Z,2.00
2018-10-02T17:10:30.776Z,2.40
2018-10-02T17:13:36.385Z,2.50
2018-10-02T17:16:41.471Z,3.20
2018-10-02T17:19:46.734Z,2.37
2018-10-02T17:22:52.264Z,2.83
2018-10-02T17:25:57.384Z,2.23
2018-10-02T17:29:02.597Z,3.17
2018-10-02T17:32:08.231Z,3.30
2018-10-02T17:35:12.758Z,3.03
2018-10-02T17:38:17.144Z,3.07
2018-10-02T17:41:21.413Z,2.53
2018-10-02T17:44:25.796Z,3.20
2018-10-02T17:47:30.109Z,2.93
2018-10-02T17:50:34.418Z,5.53
2018-10-02T17:53:38.745Z,2.50
2018-10-02T17:56:43.073Z,2.90
2018-10-02T17:59:47.409Z,3.00
2018-10-02T18:02:51.725Z,3.00
2018-10-02T18:05:56.133Z,3.37
2018-10-02T18:09:00.534Z,3.70
2018-10-02T18:12:04.903Z,2.77
2018-10-02T18:15:09.275Z,3.13
2018-10-02T18:18:13.590Z,2.77
2018-10-02T18:21:18.043Z,3.00
2018-10-02T18:24:22.386Z,3.40
2018-10-02T18:27:26.808Z,4.13
2018-10-02T18:30:31.709Z,3.20
2018-10-02T18:33:36.159Z,3.73
2018-10-02T18:36:40.585Z,3.40
2018-10-02T18:39:45.157Z,3.10
2018-10-02T18:42:49.595Z,3.50
2018-10-02T18:45:53.953Z,3.17
2018-10-02T18:48:58.426Z,3.10
2018-10-02T18:52:02.895Z,2.77
2018-10-02T18:55:07.709Z,3.37
2018-10-02T18:58:12.305Z,3.23
2018-10-02T19:01:17.829Z,3.13
2018-10-02T19:04:22.250Z,3.07
2018-10-02T19:07:26.894Z,1.63
2018-10-02T19:10:31.612Z,3.60
2018-10-02T19:13:36.614Z,2.90
2018-10-02T19:16:41.395Z,3.17
2018-10-02T19:19:51.225Z,3.50
2018-10-02T19:22:55.924Z,3.13
2018-10-02T19:26:10.838Z,3.60
2018-10-02T19:29:15.648Z,2.37
2018-10-02T19:32:20.569Z,3.47
2018-10-02T19:35:25.494Z,3.73
2018-10-02T19:38:35.241Z,2.90
2018-10-02T19:41:40.062Z,2.97
2018-10-02T19:44:45.044Z,4.60
2018-10-02T19:47:49.731Z,3.00
2018-10-02T19:50:57.976Z,4.40
2018-10-02T19:54:03.414Z,3.63
2018-10-02T19:57:09.746Z,2.80
2018-10-02T20:00:14.528Z,3.07
2018-10-02T20:03:19.347Z,3.10
2018-10-02T20:06:23.972Z,2.10
2018-10-02T20:09:28.694Z,2.67
2018-10-02T20:12:33.370Z,2.13
2018-10-02T20:15:38.094Z,3.40
2018-10-02T20:18:42.820Z,3.73
2018-10-02T20:21:47.524Z,2.90
2018-10-02T20:24:52.353Z,4.20
2018-10-02T20:27:57.009Z,3.63
2018-10-02T20:31:01.746Z,3.10
2018-10-02T20:34:06.481Z,3.73
2018-10-02T20:37:11.025Z,2.30
2018-10-02T20:40:15.664Z,2.97
2018-10-02T20:43:20.518Z,3.80
2018-10-02T20:46:25.339Z,3.23
2018-10-02T20:49:30.074Z,3.60
2018-10-02T20:52:34.644Z,3.03
2018-10-02T20:55:39.268Z,3.20
2018-10-02T20:58:43.752Z,3.37
2018-10-02T21:01:48.114Z,3.17
2018-10-02T21:04:52.849Z,3.40
2018-10-02T21:07:57.619Z,4.07
2018-10-02T21:11:02.042Z,3.70
2018-10-02T21:14:06.454Z,3.60
2018-10-02T21:17:10.742Z,3.53
2018-10-02T21:20:15.102Z,3.57
2018-10-02T21:23:19.552Z,3.43
2018-10-02T21:26:23.928Z,2.83
2018-10-02T21:29:28.230Z,3.10
2018-10-02T21:32:32.605Z,2.20
2018-10-02T21:35:36.992Z,2.33
2018-10-02T21:38:42.044Z,2.63
2018-10-02T21:41:46.335Z,2.57
2018-10-02T21:44:50.762Z,2.80
2018-10-02T21:47:55.117Z,3.63
2018-10-02T21:50:59.595Z,3.50
2018-10-02T21:54:03.971Z,3.83
2018-10-02T21:57:08.321Z,3.17
2018-10-02T22:00:12.698Z,3.70
2018-10-02T22:03:17.046Z,3.87
2018-10-02T22:06:21.412Z,4.20
2018-10-02T22:09:25.754Z,4.33
2018-10-02T22:12:30.140Z,4.20
2018-10-02T22:15:34.986Z,4.40
2018-10-02T22:18:39.339Z,4.33
2018-10-02T22:21:43.665Z,3.43
2018-10-02T22:24:48.093Z,3.77
2018-10-02T22:27:52.654Z,3.97
2018-10-02T22:30:58.043Z,4.13
2018-10-02T22:34:02.395Z,4.20
2018-10-02T22:37:06.725Z,4.00
2018-10-02T22:40:12.701Z,3.30
2018-10-02T22:43:17.015Z,3.43
2018-10-02T22:46:21.288Z,4.80
2018-10-02T22:49:25.533Z,3.47
2018-10-02T22:52:29.819Z,3.53
2018-10-02T22:55:34.162Z,3.63
2018-10-02T22:58:38.417Z,4.20
2018-10-02T23:01:42.817Z,3.63
2018-10-02T23:04:47.114Z,3.83
2018-10-02T23:07:51.397Z,2.27
2018-10-02T23:10:55.654Z,4.40
2018-10-02T23:13:59.980Z,4.23
2018-10-02T23:17:05.314Z,5.23
2018-10-02T23:20:10.451Z,4.13
2018-10-02T23:23:16.356Z,4.37
2018-10-02T23:26:21.737Z,4.43
2018-10-02T23:29:26.811Z,3.47
2018-10-02T23:32:31.140Z,2.97
2018-10-02T23:35:35.480Z,2.30
2018-10-02T23:38:39.782Z,1.80
2018-10-02T23:41:44.085Z,2.97
2018-10-02T23:44:48.423Z,2.47
2018-10-02T23:47:52.784Z,2.17
2018-10-02T23:50:57.022Z,2.83
2018-10-02T23:54:01.418Z,3.57
2018-10-02T23:57:06.179Z,1.97
